createdAt,value
2018-06-21T06:42:42.775Z,99.99
2018-06-21T06:43:42.384Z,99.99
2018-06-21T06:45:35.256Z,99.99
2018-06-21T06:46:35.274Z,99.99
2018-06-21T06:48:28.138Z,99.99
2018-06-21T06:49:28.087Z,99.99
2018-06-21T06:51:20.971Z,99.99
2018-06-21T06:52:20.937Z,99.99
2018-06-21T06:54:13.844Z,99.99
2018-06-21T06:55:13.795Z,99.99
2018-06-21T06:57:06.710Z,99.99
2018-06-21T06:58:06.651Z,99.99
2018-06-21T06:59:59.529Z,99.99
2018-06-21T07:00:59.510Z,99.99
2018-06-21T07:02:52.414Z,99.99
2018-06-21T07:03:52.359Z,99.99
2018-06-21T07:05:45.246Z,99.99
2018-06-21T07:06:45.212Z,99.99
2018-06-21T07:08:38.115Z,99.99
2018-06-21T07:09:38.070Z,99.99
2018-06-21T07:11:30.973Z,99.99
2018-06-21T07:12:30.921Z,99.99
2018-06-21T07:14:23.852Z,99.99
2018-06-21T07:15:23.774Z,99.99
2018-06-21T07:16:23.759Z,99.99
2018-06-21T07:17:23.732Z,99.99
2018-06-21T07:18:23.705Z,99.99
2018-06-21T07:19:23.683Z,99.99
2018-06-21T07:20:23.684Z,99.99
2018-06-21T07:21:23.638Z,99.99
2018-06-21T07:22:23.607Z,99.99
2018-06-21T07:23:23.587Z,99.99
2018-06-21T07:24:23.565Z,99.99
2018-06-21T07:25:23.540Z,99.99
2018-06-21T07:26:23.514Z,99.99
2018-06-21T07:27:23.488Z,99.99
2018-06-21T07:28:23.530Z,99.99
2018-06-21T07:29:23.442Z,99.99
2018-06-21T07:30:23.421Z,99.99
2018-06-21T07:31:23.400Z,99.99
2018-06-21T07:32:23.375Z,99.99
2018-06-21T07:33:23.354Z,99.99
2018-06-21T07:34:23.321Z,99.99
2018-06-21T07:35:23.299Z,99.99
2018-06-21T07:36:23.277Z,99.99
2018-06-21T07:37:23.254Z,99.99
2018-06-21T07:38:23.230Z,99.99
2018-06-21T07:39:23.200Z,99.99
2018-06-21T07:40:23.184Z,99.99
2018-06-21T07:41:23.161Z,99.99
2018-06-21T07:42:23.131Z,99.99
2018-06-21T07:43:23.112Z,99.99
2018-06-21T07:44:23.083Z,99.99
2018-06-21T07:45:23.062Z,99.99
2018-06-21T07:46:23.035Z,99.99
2018-06-21T07:47:23.015Z,99.99
2018-06-21T07:48:22.987Z,99.99
2018-06-21T07:49:22.965Z,99.99
2018-06-21T07:50:22.938Z,99.99
2018-06-21T07:51:22.917Z,99.99
2018-06-21T07:52:22.891Z,99.99
2018-06-21T07:53:22.872Z,99.99
2018-06-21T07:54:22.840Z,99.99
2018-06-21T07:55:22.825Z,99.99
2018-06-21T07:56:22.796Z,99.99
2018-06-21T07:57:22.774Z,99.99
2018-06-21T07:58:22.753Z,99.99
2018-06-21T07:59:22.722Z,99.99
2018-06-21T08:00:22.708Z,99.99
2018-06-21T08:01:22.689Z,99.99
2018-06-21T08:02:22.669Z,99.99
2018-06-21T08:03:22.626Z,99.99
2018-06-21T08:04:22.602Z,99.99
2018-06-21T08:05:22.578Z,99.99
2018-06-21T08:06:22.559Z,99.99
2018-06-21T08:07:22.536Z,99.99
2018-06-21T08:08:22.510Z,99.99
2018-06-21T08:09:22.482Z,99.99
2018-06-21T08:10:22.467Z,99.99
2018-06-21T08:11:22.432Z,99.99
2018-06-21T08:12:22.417Z,99.99
2018-06-21T08:13:22.396Z,99.99
2018-06-21T08:14:22.365Z,99.99
2018-06-21T08:15:22.348Z,99.99
2018-06-21T08:16:22.314Z,99.99
2018-06-21T08:17:22.295Z,99.99
2018-06-21T08:18:22.272Z,98.53
2018-06-21T08:19:22.247Z,98.91
2018-06-21T08:20:22.255Z,98.53
2018-06-21T08:21:22.200Z,99.01
2018-06-21T08:22:22.173Z,98.58
2018-06-21T08:23:22.162Z,97.81
2018-06-21T08:24:22.139Z,97.81
2018-06-21T08:25:22.111Z,98.58
2018-06-21T08:26:22.079Z,98.67
2018-06-21T08:27:22.055Z,94.69
2018-06-21T08:28:22.036Z,94.69
2018-06-21T08:29:22.010Z,94.98
2018-06-21T08:30:21.985Z,94.88
2018-06-21T08:31:21.984Z,94.54
2018-06-21T08:32:21.966Z,95.21
2018-06-21T08:33:21.920Z,96.66
2018-06-21T08:34:21.916Z,96.89
2018-06-21T08:35:21.877Z,96.13
2018-06-21T08:36:21.852Z,95.94
2018-06-21T08:37:21.824Z,94.69
2018-06-21T08:38:21.792Z,94.88
2018-06-21T08:39:21.786Z,93.44
2018-06-21T08:40:21.762Z,94.59
2018-06-21T08:41:21.741Z,94.84
2018-06-21T08:42:21.699Z,96.13
2018-06-21T08:43:21.684Z,95.36
2018-06-21T08:44:21.699Z,94.54
2018-06-21T08:45:21.647Z,92.63
2018-06-21T08:46:21.640Z,90.90
2018-06-21T08:47:21.586Z,90.99
2018-06-21T08:48:21.592Z,90.56
2018-06-21T08:49:21.534Z,91.05
2018-06-21T08:50:21.532Z,90.75
2018-06-21T08:51:21.485Z,92.19
2018-06-21T08:52:21.469Z,91.05
2018-06-21T08:53:21.476Z,90.75
2018-06-21T08:54:21.450Z,90.66
2018-06-21T08:55:21.395Z,90.32
2018-06-21T08:56:21.367Z,90.52
2018-06-21T08:57:21.349Z,90.13
2018-06-21T08:58:21.327Z,90.08
2018-06-21T08:59:21.305Z,90.99
2018-06-21T09:00:21.274Z,89.46
2018-06-21T09:01:21.252Z,87.44
2018-06-21T09:02:21.226Z,86.38
2018-06-21T09:03:21.200Z,85.33
2018-06-21T09:04:21.185Z,85.75
2018-06-21T09:05:21.179Z,86.14
2018-06-21T09:06:21.225Z,83.36
2018-06-21T09:07:21.107Z,83.07
2018-06-21T09:08:21.088Z,82.73
2018-06-21T09:09:21.075Z,80.19
2018-06-21T09:10:21.040Z,80.66
2018-06-21T09:11:21.055Z,82.15
2018-06-21T09:12:21.002Z,80.28
2018-06-21T09:13:20.980Z,80.22
2018-06-21T09:14:20.962Z,79.75
2018-06-21T09:15:20.989Z,79.07
2018-06-21T09:16:20.899Z,78.59
2018-06-21T09:17:20.879Z,78.78
2018-06-21T09:18:20.848Z,78.21
2018-06-21T09:19:20.832Z,78.45
2018-06-21T09:20:20.808Z,78.36
2018-06-21T09:21:20.783Z,78.55
2018-06-21T09:22:20.775Z,79.76
2018-06-21T09:23:20.791Z,80.34
2018-06-21T09:24:20.708Z,81.01
2018-06-21T09:25:20.700Z,81.97
2018-06-21T09:26:20.664Z,81.84
2018-06-21T09:27:20.638Z,81.16
2018-06-21T09:28:20.631Z,82.79
2018-06-21T09:29:20.591Z,83.47
2018-06-21T09:30:20.570Z,84.77
2018-06-21T09:31:20.550Z,84.09
2018-06-21T09:32:20.519Z,84.63
2018-06-21T09:33:20.560Z,84.63
2018-06-21T09:34:20.498Z,85.30
2018-06-21T09:35:20.453Z,86.45
2018-06-21T09:36:20.449Z,85.39
2018-06-21T09:37:20.420Z,86.21
2018-06-21T09:38:20.396Z,85.54
2018-06-21T09:39:20.371Z,86.21
2018-06-21T09:40:20.329Z,87.65
2018-06-21T09:41:20.305Z,87.74
2018-06-21T09:42:20.309Z,88.90
2018-06-21T09:43:20.869Z,87.37
2018-06-21T09:44:20.237Z,87.46
2018-06-21T09:45:20.251Z,88.70
2018-06-21T09:46:20.188Z,85.93
2018-06-21T09:47:20.175Z,86.79
2018-06-21T09:48:20.139Z,86.54
2018-06-21T09:49:20.119Z,86.16
2018-06-21T09:50:20.092Z,84.91
2018-06-21T09:51:20.099Z,85.01
2018-06-21T09:52:20.091Z,84.34
2018-06-21T09:53:20.040Z,83.00
2018-06-21T09:54:20.029Z,82.46
2018-06-21T09:55:19.971Z,82.08
2018-06-21T09:56:19.950Z,82.08
2018-06-21T09:57:19.937Z,82.46
2018-06-21T09:58:19.920Z,81.74
2018-06-21T09:59:19.869Z,80.97
2018-06-21T10:00:19.853Z,78.86
2018-06-21T10:01:19.844Z,78.77
2018-06-21T10:02:19.808Z,78.57
2018-06-21T10:03:19.775Z,78.13
2018-06-21T10:04:19.823Z,78.32
2018-06-21T10:05:19.807Z,77.36
2018-06-21T10:06:19.709Z,76.56
2018-06-21T10:07:19.687Z,77.26
2018-06-21T10:08:19.658Z,77.04
2018-06-21T10:09:19.653Z,77.84
2018-06-21T10:10:19.614Z,75.70
2018-06-21T10:11:19.589Z,75.31
2018-06-21T10:12:19.580Z,73.55
2018-06-21T10:13:19.545Z,73.93
2018-06-21T10:14:19.529Z,71.92
2018-06-21T10:15:19.488Z,70.96
2018-06-21T10:16:19.490Z,70.76
2018-06-21T10:17:19.457Z,69.52
2018-06-21T10:18:19.421Z,70.00
2018-06-21T10:19:19.413Z,69.42
2018-06-21T10:20:19.394Z,68.59
2018-06-21T10:21:19.350Z,68.02
2018-06-21T10:22:19.328Z,68.40
2018-06-21T10:23:19.347Z,68.30
2018-06-21T10:24:19.269Z,66.67
2018-06-21T10:25:19.245Z,65.33
2018-06-21T10:26:19.229Z,62.16
2018-06-21T10:27:19.197Z,61.69
2018-06-21T10:28:19.181Z,61.69
2018-06-21T10:29:19.161Z,61.59
2018-06-21T10:30:19.133Z,63.06
2018-06-21T10:31:19.101Z,63.83
2018-06-21T10:32:19.089Z,62.77
2018-06-21T10:33:19.057Z,63.35
2018-06-21T10:34:19.036Z,62.71
2018-06-21T10:35:19.014Z,61.55
2018-06-21T10:36:18.982Z,61.55
2018-06-21T10:37:18.960Z,61.65
2018-06-21T10:38:18.946Z,62.42
2018-06-21T10:39:18.919Z,62.99
2018-06-21T10:40:18.891Z,63.09
2018-06-21T10:41:18.875Z,62.58
2018-06-21T10:42:18.838Z,62.68
2018-06-21T10:43:18.819Z,63.42
2018-06-21T10:44:18.792Z,62.74
2018-06-21T10:45:18.769Z,63.19
2018-06-21T10:46:18.749Z,64.53
2018-06-21T10:47:18.725Z,65.62
2018-06-21T10:48:18.707Z,66.00
2018-06-21T10:49:18.684Z,65.91
2018-06-21T10:50:18.651Z,62.84
2018-06-21T10:51:18.629Z,61.59
2018-06-21T10:52:18.604Z,61.88
2018-06-21T10:53:18.578Z,59.77
2018-06-21T10:54:18.552Z,58.07
2018-06-21T10:55:18.532Z,57.30
2018-06-21T10:56:18.517Z,57.50
2018-06-21T10:57:18.481Z,57.52
2018-06-21T10:58:18.495Z,57.62
2018-06-21T10:59:18.458Z,57.43
2018-06-21T11:00:18.414Z,57.21
2018-06-21T11:01:18.422Z,58.36
2018-06-21T11:02:18.394Z,59.09
2018-06-21T11:03:18.359Z,60.35
2018-06-21T11:04:18.339Z,61.02
2018-06-21T11:05:18.295Z,61.21
2018-06-21T11:06:18.303Z,61.69
2018-06-21T11:07:18.251Z,61.11
2018-06-21T11:08:18.252Z,61.40
2018-06-21T11:09:18.207Z,61.49
2018-06-21T11:10:18.180Z,61.40
2018-06-21T11:11:18.151Z,61.69
2018-06-21T11:12:18.126Z,61.49
2018-06-21T11:13:18.113Z,61.05
2018-06-21T11:14:18.084Z,59.89
2018-06-21T11:15:18.066Z,56.92
2018-06-21T11:16:18.036Z,56.24
2018-06-21T11:17:18.028Z,56.44
2018-06-21T11:18:17.984Z,57.30
2018-06-21T11:19:17.960Z,55.86
2018-06-21T11:20:17.945Z,56.15
2018-06-21T11:21:17.948Z,56.73
2018-06-21T11:22:17.893Z,57.68
2018-06-21T11:23:17.862Z,57.50
2018-06-21T11:24:17.849Z,57.59
2018-06-21T11:25:17.819Z,57.88
2018-06-21T11:26:17.797Z,57.88
2018-06-21T11:27:17.767Z,60.38
2018-06-21T11:28:17.750Z,59.41
2018-06-21T11:29:17.724Z,60.05
2018-06-21T11:30:17.704Z,61.40
2018-06-21T11:31:17.676Z,62.84
2018-06-21T11:32:17.835Z,62.93
2018-06-21T11:33:18.333Z,62.16
2018-06-21T11:34:17.698Z,62.74
2018-06-21T11:35:17.684Z,61.56
2018-06-21T11:36:17.551Z,60.31
2018-06-21T11:37:17.531Z,60.03
2018-06-21T11:38:17.543Z,60.50
2018-06-21T11:39:17.484Z,61.88
2018-06-21T11:40:17.457Z,61.88
2018-06-21T11:41:17.484Z,60.92
2018-06-21T11:42:17.546Z,60.35
2018-06-21T11:43:17.396Z,60.63
2018-06-21T11:44:17.394Z,60.53
2018-06-21T11:45:17.344Z,59.29
2018-06-21T11:46:17.336Z,57.59
2018-06-21T11:47:17.332Z,57.50
2018-06-21T11:48:17.413Z,56.56
2018-06-21T11:49:17.428Z,55.60
2018-06-21T11:50:17.561Z,55.51
2018-06-21T11:51:17.214Z,54.79
2018-06-21T11:52:17.189Z,54.38
2018-06-21T11:53:17.154Z,54.82
2018-06-21T11:54:17.209Z,53.25
2018-06-21T11:55:17.100Z,54.45
2018-06-21T11:56:17.090Z,54.14
2018-06-21T11:57:17.049Z,51.29
2018-06-21T11:58:17.037Z,50.06
2018-06-21T11:59:17.008Z,48.35
2018-06-21T12:00:17.020Z,47.80
2018-06-21T12:01:16.999Z,47.14
2018-06-21T12:02:16.979Z,46.11
2018-06-21T12:03:16.955Z,46.18
2018-06-21T12:04:16.889Z,45.70
2018-06-21T12:05:16.875Z,44.66
2018-06-21T12:06:16.845Z,45.10
2018-06-21T12:07:16.840Z,48.30
2018-06-21T12:08:16.811Z,51.43
2018-06-21T12:09:16.793Z,52.36
2018-06-21T12:10:16.765Z,53.66
2018-06-21T12:11:16.743Z,53.97
2018-06-21T12:12:16.726Z,51.91
2018-06-21T12:13:16.703Z,49.74
2018-06-21T12:14:16.675Z,48.03
2018-06-21T12:15:16.653Z,47.39
2018-06-21T12:16:16.635Z,45.84
2018-06-21T12:17:16.605Z,45.07
2018-06-21T12:18:16.589Z,45.29
2018-06-21T12:19:16.642Z,44.23
2018-06-21T12:20:16.572Z,43.27
2018-06-21T12:21:16.547Z,44.96
2018-06-21T12:22:16.497Z,46.86
2018-06-21T12:23:16.473Z,47.13
2018-06-21T12:24:16.458Z,49.12
2018-06-21T12:25:16.439Z,50.23
2018-06-21T12:26:16.413Z,51.47
2018-06-21T12:27:16.385Z,50.01
2018-06-21T12:28:16.365Z,48.57
2018-06-21T12:29:16.342Z,49.77
2018-06-21T12:30:16.316Z,51.86
2018-06-21T12:31:16.295Z,52.36
2018-06-21T12:32:16.276Z,53.27
2018-06-21T12:33:16.253Z,54.97
2018-06-21T12:34:16.222Z,54.97
2018-06-21T12:35:16.207Z,56.19
2018-06-21T12:36:16.178Z,56.89
2018-06-21T12:37:16.161Z,55.71
2018-06-21T12:38:16.129Z,55.02
2018-06-21T12:39:16.116Z,48.21
2018-06-21T12:40:16.083Z,45.92
2018-06-21T12:41:16.065Z,47.13
2018-06-21T12:42:16.036Z,45.01
2018-06-21T12:43:16.016Z,44.29
2018-06-21T12:44:15.989Z,45.90
2018-06-21T12:45:15.966Z,47.05
2018-06-21T12:46:15.946Z,48.11
2018-06-21T12:47:15.923Z,47.15
2018-06-21T12:48:15.898Z,47.85
2018-06-21T12:49:15.867Z,47.30
2018-06-21T12:50:15.857Z,46.04
2018-06-21T12:51:15.825Z,46.26
2018-06-21T12:52:15.809Z,47.10
2018-06-21T12:53:15.774Z,47.30
2018-06-21T12:54:15.759Z,46.62
2018-06-21T12:55:15.726Z,46.89
2018-06-21T12:56:15.716Z,46.98
2018-06-21T12:57:15.681Z,46.14
2018-06-21T12:58:15.662Z,45.01
2018-06-21T12:59:15.636Z,44.12
2018-06-21T13:00:15.615Z,45.25
2018-06-21T13:01:15.589Z,45.83
2018-06-21T13:02:15.566Z,46.28
2018-06-21T13:03:15.536Z,47.08
2018-06-21T13:04:15.522Z,48.11
2018-06-21T13:05:15.536Z,48.02
2018-06-21T13:06:15.476Z,48.21
2018-06-21T13:07:15.451Z,48.30
2018-06-21T13:08:15.429Z,49.19
2018-06-21T13:09:15.403Z,48.43
2018-06-21T13:10:15.369Z,48.52
2018-06-21T13:11:15.351Z,47.27
2018-06-21T13:12:15.363Z,47.68
2018-06-21T13:13:15.309Z,47.77
2018-06-21T13:14:15.279Z,47.49
2018-06-21T13:15:15.253Z,47.87
2018-06-21T13:16:15.238Z,47.61
2018-06-21T13:17:15.214Z,46.93
2018-06-21T13:18:15.182Z,47.00
2018-06-21T13:19:15.163Z,47.49
2018-06-21T13:20:15.141Z,47.85
2018-06-21T13:21:15.111Z,46.41
2018-06-21T13:22:15.148Z,46.98
2018-06-21T13:23:15.069Z,46.96
2018-06-21T13:24:15.054Z,46.21
2018-06-21T13:25:15.021Z,46.50
2018-06-21T13:26:14.995Z,46.86
2018-06-21T13:27:14.970Z,47.34
2018-06-21T13:28:14.954Z,48.11
2018-06-21T13:29:14.931Z,47.92
2018-06-21T13:30:14.901Z,47.05
2018-06-21T13:31:14.876Z,47.92
2018-06-21T13:32:14.857Z,48.30
2018-06-21T13:33:14.825Z,49.55
2018-06-21T13:34:14.806Z,49.72
2018-06-21T13:35:14.780Z,50.01
2018-06-21T13:36:14.759Z,50.75
2018-06-21T13:37:14.738Z,51.23
2018-06-21T13:38:14.714Z,52.19
2018-06-21T13:39:14.693Z,52.09
2018-06-21T13:40:14.663Z,52.48
2018-06-21T13:41:14.639Z,53.24
2018-06-21T13:42:14.618Z,53.15
2018-06-21T13:43:14.591Z,53.17
2018-06-21T13:44:14.570Z,52.50
2018-06-21T13:45:14.541Z,50.96
2018-06-21T13:46:14.526Z,49.72
2018-06-21T13:47:14.509Z,49.52
2018-06-21T13:48:14.483Z,49.82
2018-06-21T13:49:14.453Z,49.72
2018-06-21T13:50:14.427Z,50.39
2018-06-21T13:51:14.415Z,50.29
2018-06-21T13:52:14.375Z,50.87
2018-06-21T13:53:14.355Z,50.29
2018-06-21T13:54:14.330Z,50.10
2018-06-21T13:55:14.307Z,50.87
2018-06-21T13:56:14.288Z,51.42
2018-06-21T13:57:14.255Z,52.19
2018-06-21T13:58:14.241Z,53.05
2018-06-21T13:59:14.270Z,52.95
2018-06-21T14:00:14.191Z,52.95
2018-06-21T14:01:14.165Z,52.95
2018-06-21T14:02:14.143Z,53.15
2018-06-21T14:03:14.113Z,54.11
2018-06-21T14:04:14.096Z,54.11
2018-06-21T14:05:14.084Z,54.49
2018-06-21T14:06:14.050Z,55.07
2018-06-21T14:07:14.017Z,55.67
2018-06-21T14:08:14.080Z,55.19
2018-06-21T14:09:13.973Z,54.80
2018-06-21T14:10:13.950Z,53.85
2018-06-21T14:11:13.928Z,54.23
2018-06-21T14:12:13.906Z,54.71
2018-06-21T14:13:13.872Z,55.00
2018-06-21T14:14:13.850Z,55.77
2018-06-21T14:15:13.830Z,54.90
2018-06-21T14:16:13.809Z,55.57
2018-06-21T14:17:13.781Z,55.32
2018-06-21T14:18:13.765Z,54.90
2018-06-21T14:19:13.778Z,55.60
2018-06-21T14:20:13.710Z,54.74
2018-06-21T14:21:13.686Z,54.45
2018-06-21T14:22:13.657Z,54.74
2018-06-21T14:23:13.645Z,54.93
2018-06-21T14:24:13.612Z,54.64
2018-06-21T14:25:13.591Z,54.09
2018-06-21T14:26:13.565Z,52.53
2018-06-21T14:27:13.539Z,52.24
2018-06-21T14:28:13.525Z,53.30
2018-06-21T14:29:13.492Z,53.30
2018-06-21T14:30:13.562Z,53.56
2018-06-21T14:31:13.444Z,53.85
2018-06-21T14:32:13.431Z,54.42
2018-06-21T14:33:13.413Z,54.80
2018-06-21T14:34:13.372Z,54.45
2018-06-21T14:35:13.357Z,53.97
2018-06-21T14:36:13.330Z,53.32
2018-06-21T14:37:13.301Z,53.70
2018-06-21T14:38:13.288Z,53.80
2018-06-21T14:39:13.297Z,52.14
2018-06-21T14:40:13.239Z,53.20
2018-06-21T14:41:13.266Z,53.94
2018-06-21T14:42:13.186Z,54.61
2018-06-21T14:43:13.163Z,55.19
2018-06-21T14:44:13.140Z,56.12
2018-06-21T14:45:13.116Z,56.89
2018-06-21T14:46:13.131Z,56.60
2018-06-21T14:47:13.068Z,56.98
2018-06-21T14:48:13.137Z,58.14
2018-06-21T14:49:13.024Z,58.42
2018-06-21T14:50:13.003Z,59.09
2018-06-21T14:51:12.969Z,58.71
2018-06-21T14:52:12.953Z,59.00
2018-06-21T14:53:12.930Z,59.29
2018-06-21T14:54:12.903Z,59.58
2018-06-21T14:55:12.881Z,59.38
2018-06-21T14:56:12.861Z,59.48
2018-06-21T14:57:12.925Z,59.58
2018-06-21T14:58:12.828Z,59.67
2018-06-21T14:59:12.779Z,60.25
2018-06-21T15:00:12.764Z,60.63
2018-06-21T15:01:12.730Z,60.99
2018-06-21T15:02:12.721Z,60.79
2018-06-21T15:03:12.700Z,60.89
2018-06-21T15:04:12.675Z,61.66
2018-06-21T15:05:12.642Z,62.71
2018-06-21T15:06:12.621Z,63.26
2018-06-21T15:07:12.596Z,63.45
2018-06-21T15:08:12.569Z,63.73
2018-06-21T15:09:12.540Z,64.12
2018-06-21T15:10:12.518Z,64.59
2018-06-21T15:11:12.545Z,65.23
2018-06-21T15:12:12.473Z,65.75
2018-06-21T15:13:12.452Z,66.13
2018-06-21T15:14:12.420Z,66.32
2018-06-21T15:15:12.401Z,66.51
2018-06-21T15:16:12.385Z,66.61
2018-06-21T15:17:12.356Z,67.18
2018-06-21T15:18:12.325Z,67.18
2018-06-21T15:19:12.305Z,66.89
2018-06-21T15:20:12.282Z,67.44
2018-06-21T15:21:12.248Z,68.21
2018-06-21T15:22:12.237Z,68.21
2018-06-21T15:23:12.208Z,68.11
2018-06-21T15:24:12.184Z,68.01
2018-06-21T15:25:12.162Z,67.91
2018-06-21T15:26:12.135Z,66.80
2018-06-21T15:27:12.113Z,66.13
2018-06-21T15:28:12.082Z,64.31
2018-06-21T15:29:12.057Z,62.77
2018-06-21T15:30:12.041Z,63.26
2018-06-21T15:31:12.008Z,63.57
2018-06-21T15:32:11.987Z,62.90
2018-06-21T15:33:11.959Z,60.99
2018-06-21T15:34:11.943Z,61.94
2018-06-21T15:35:11.912Z,61.40
2018-06-21T15:36:11.896Z,61.69
2018-06-21T15:37:11.870Z,61.40
2018-06-21T15:38:11.839Z,60.31
2018-06-21T15:39:11.823Z,60.89
2018-06-21T15:40:11.982Z,61.18
2018-06-21T15:41:11.768Z,61.66
2018-06-21T15:42:11.748Z,61.56
2018-06-21T15:43:11.720Z,60.99
2018-06-21T15:44:11.700Z,61.85
2018-06-21T15:45:11.676Z,62.33
2018-06-21T15:46:11.655Z,62.71
2018-06-21T15:47:11.623Z,62.33
2018-06-21T15:48:11.606Z,61.75
2018-06-21T15:49:11.572Z,61.49
2018-06-21T15:50:11.557Z,61.88
2018-06-21T15:51:11.526Z,61.30
2018-06-21T15:52:11.509Z,60.15
2018-06-21T15:53:11.485Z,60.92
2018-06-21T15:54:11.453Z,61.02
2018-06-21T15:55:11.437Z,60.18
2018-06-21T15:56:11.407Z,60.05
2018-06-21T15:57:11.411Z,61.08
2018-06-21T15:58:11.374Z,61.66
2018-06-21T15:59:11.341Z,61.88
2018-06-21T16:00:11.313Z,60.95
2018-06-21T16:01:11.294Z,60.95
2018-06-21T16:02:11.261Z,59.44
2018-06-21T16:03:11.342Z,58.13
2018-06-21T16:04:11.238Z,56.74
2018-06-21T16:05:11.192Z,56.68
2018-06-21T16:06:11.171Z,58.73
2018-06-21T16:07:11.152Z,56.07
2018-06-21T16:08:11.118Z,54.52
2018-06-21T16:09:11.099Z,55.59
2018-06-21T16:10:11.075Z,56.62
2018-06-21T16:11:11.049Z,55.35
2018-06-21T16:12:11.035Z,53.19
2018-06-21T16:13:11.014Z,53.31
2018-06-21T16:14:10.977Z,55.37
2018-06-21T16:15:10.958Z,57.20
2018-06-21T16:16:10.938Z,57.55
2018-06-21T16:17:10.916Z,55.74
2018-06-21T16:18:10.889Z,51.56
2018-06-21T16:19:10.864Z,49.37
2018-06-21T16:20:10.850Z,51.14
2018-06-21T16:21:10.833Z,53.28
2018-06-21T16:22:10.798Z,55.34
2018-06-21T16:23:10.775Z,57.04
2018-06-21T16:24:10.758Z,58.94
2018-06-21T16:25:10.735Z,59.70
2018-06-21T16:26:10.704Z,60.92
2018-06-21T16:27:10.689Z,60.35
2018-06-21T16:28:10.678Z,61.21
2018-06-21T16:29:10.640Z,61.66
2018-06-21T16:30:10.622Z,61.46
2018-06-21T16:31:10.590Z,61.85
2018-06-21T16:32:10.576Z,63.00
2018-06-21T16:33:10.548Z,62.62
2018-06-21T16:34:10.526Z,62.71
2018-06-21T16:35:10.499Z,63.48
2018-06-21T16:36:10.480Z,63.45
2018-06-21T16:37:10.453Z,64.40
2018-06-21T16:38:10.431Z,63.92
2018-06-21T16:39:10.406Z,64.02
2018-06-21T16:40:10.423Z,64.59
2018-06-21T16:41:10.356Z,65.26
2018-06-21T16:42:10.341Z,65.59
2018-06-21T16:43:10.315Z,66.06
2018-06-21T16:44:10.293Z,66.83
2018-06-21T16:45:10.263Z,67.41
2018-06-21T16:46:10.242Z,68.05
2018-06-21T16:47:10.215Z,68.62
2018-06-21T16:48:10.194Z,69.10
2018-06-21T16:49:10.171Z,67.25
2018-06-21T16:50:10.145Z,61.19
2018-06-21T16:51:10.119Z,56.01
2018-06-21T16:52:10.105Z,52.59
2018-06-21T16:53:10.074Z,51.17
2018-06-21T16:54:10.057Z,49.60
2018-06-21T16:55:10.028Z,47.50
2018-06-21T16:56:10.003Z,45.78
2018-06-21T16:57:09.985Z,46.05
2018-06-21T16:58:09.953Z,45.92
2018-06-21T16:59:09.933Z,44.89
2018-06-21T17:00:09.915Z,45.61
2018-06-21T17:01:09.890Z,43.06
2018-06-21T17:02:09.892Z,42.02
2018-06-21T17:03:09.851Z,41.76
2018-06-21T17:04:09.827Z,43.21
2018-06-21T17:05:09.809Z,42.17
2018-06-21T17:06:09.781Z,42.67
2018-06-21T17:07:09.762Z,41.49
2018-06-21T17:08:09.744Z,41.33
2018-06-21T17:09:09.729Z,40.58
2018-06-21T17:10:09.710Z,40.87
2018-06-21T17:11:09.684Z,40.29
2018-06-21T17:12:09.673Z,39.22
2018-06-21T17:13:09.644Z,38.83
2018-06-21T17:14:09.634Z,40.46
2018-06-21T17:15:09.628Z,42.57
2018-06-21T17:16:09.589Z,47.65
2018-06-21T17:17:09.687Z,51.62
2018-06-21T17:18:09.548Z,55.40
2018-06-21T17:19:09.531Z,57.75
2018-06-21T17:20:09.525Z,59.44
2018-06-21T17:21:09.494Z,60.05
2018-06-21T17:22:09.471Z,60.40
2018-06-21T17:23:09.449Z,60.88
2018-06-21T17:24:09.436Z,61.46
2018-06-21T17:25:09.407Z,61.75
2018-06-21T17:26:09.394Z,61.81
2018-06-21T17:27:09.373Z,63.42
2018-06-21T17:28:09.350Z,64.18
2018-06-21T17:29:09.322Z,64.76
2018-06-21T17:30:09.304Z,64.85
2018-06-21T17:31:09.304Z,65.01
2018-06-21T17:32:09.265Z,65.68
2018-06-21T17:33:09.233Z,62.29
2018-06-21T17:34:09.220Z,56.37
2018-06-21T17:35:09.185Z,51.53
2018-06-21T17:36:09.233Z,48.42
2018-06-21T17:37:09.142Z,46.08
2018-06-21T17:38:09.127Z,45.72
2018-06-21T17:39:09.108Z,48.74
2018-06-21T17:40:09.079Z,51.48
2018-06-21T17:41:09.061Z,53.62
2018-06-21T17:42:09.025Z,55.08
2018-06-21T17:43:09.013Z,57.52
2018-06-21T17:44:08.982Z,58.84
2018-06-21T17:45:08.967Z,60.35
2018-06-21T17:46:08.940Z,60.60
2018-06-21T17:47:08.920Z,60.47
2018-06-21T17:48:08.898Z,61.34
2018-06-21T17:49:08.879Z,62.30
2018-06-21T17:50:08.845Z,61.53
2018-06-21T17:51:08.826Z,61.98
2018-06-21T17:52:08.800Z,62.26
2018-06-21T17:53:08.783Z,62.65
2018-06-21T17:54:08.758Z,61.60
2018-06-21T17:55:08.727Z,61.50
2018-06-21T17:56:08.714Z,61.31
2018-06-21T17:57:08.716Z,61.98
2018-06-21T17:58:08.738Z,61.40
2018-06-21T17:59:08.646Z,62.55
2018-06-21T18:00:08.619Z,62.93
2018-06-21T18:01:08.594Z,64.05
2018-06-21T18:02:08.559Z,64.34
2018-06-21T18:03:08.544Z,64.92
2018-06-21T18:04:08.520Z,64.92
2018-06-21T18:05:08.496Z,64.92
2018-06-21T18:06:08.478Z,64.92
2018-06-21T18:07:08.442Z,64.40
2018-06-21T18:08:08.421Z,64.59
2018-06-21T18:09:08.419Z,64.79
2018-06-21T18:10:08.373Z,65.36
2018-06-21T18:11:08.346Z,64.09
2018-06-21T18:12:08.327Z,60.03
2018-06-21T18:13:08.306Z,58.11
2018-06-21T18:14:08.271Z,56.89
2018-06-21T18:15:08.251Z,55.79
2018-06-21T18:16:08.229Z,54.61
2018-06-21T18:17:08.199Z,54.61
2018-06-21T18:18:08.186Z,54.80
2018-06-21T18:19:08.156Z,56.29
2018-06-21T18:20:08.129Z,57.89
2018-06-21T18:21:08.104Z,59.30
2018-06-21T18:22:08.078Z,60.25
2018-06-21T18:23:08.063Z,60.73
2018-06-21T18:24:08.031Z,61.47
2018-06-21T18:25:08.008Z,62.23
2018-06-21T18:26:07.994Z,62.90
2018-06-21T18:27:07.963Z,64.05
2018-06-21T18:28:07.942Z,63.86
2018-06-21T18:29:07.966Z,63.96
2018-06-21T18:30:07.894Z,65.11
2018-06-21T18:31:07.866Z,65.45
2018-06-21T18:32:07.841Z,65.55
2018-06-21T18:33:07.816Z,66.13
2018-06-21T18:34:07.793Z,67.05
2018-06-21T18:35:07.773Z,67.05
2018-06-21T18:36:07.741Z,67.08
2018-06-21T18:37:07.721Z,66.80
2018-06-21T18:38:07.699Z,67.08
2018-06-21T18:39:07.666Z,66.86
2018-06-21T18:40:07.651Z,67.43
2018-06-21T18:41:07.625Z,67.05
2018-06-21T18:42:07.591Z,68.29
2018-06-21T18:43:07.569Z,68.29
2018-06-21T18:44:07.542Z,68.10
2018-06-21T18:45:07.525Z,68.87
2018-06-21T18:46:07.494Z,68.87
2018-06-21T18:47:07.471Z,68.96
2018-06-21T18:48:07.451Z,68.96
2018-06-21T18:49:07.426Z,69.06
2018-06-21T18:50:07.398Z,69.44
2018-06-21T18:51:07.371Z,69.73
2018-06-21T18:52:07.355Z,70.17
2018-06-21T18:53:07.323Z,70.27
2018-06-21T18:54:07.298Z,70.46
2018-06-21T18:55:07.275Z,70.84
2018-06-21T18:56:07.247Z,70.94
2018-06-21T18:57:07.227Z,70.65
2018-06-21T18:58:07.203Z,71.99
2018-06-21T18:59:07.172Z,71.70
2018-06-21T19:00:07.156Z,71.80
2018-06-21T19:01:07.129Z,72.18
2018-06-21T19:02:07.102Z,72.47
2018-06-21T19:03:07.073Z,72.53
2018-06-21T19:04:07.058Z,72.85
2018-06-21T19:05:07.028Z,73.39
2018-06-21T19:06:07.010Z,73.67
2018-06-21T19:07:06.982Z,73.96
2018-06-21T19:08:06.952Z,73.86
2018-06-21T19:09:06.932Z,73.96
2018-06-21T19:10:06.907Z,73.96
2018-06-21T19:11:06.873Z,74.73
2018-06-21T19:12:06.858Z,74.34
2018-06-21T19:13:06.824Z,74.44
2018-06-21T19:14:06.804Z,74.73
2018-06-21T19:15:06.781Z,74.91
2018-06-21T19:16:06.757Z,75.39
2018-06-21T19:17:06.725Z,75.78
2018-06-21T19:18:06.704Z,75.39
2018-06-21T19:19:06.682Z,75.87
2018-06-21T19:20:06.649Z,75.59
2018-06-21T19:21:06.627Z,76.16
2018-06-21T19:22:06.599Z,75.30
2018-06-21T19:23:06.576Z,75.01
2018-06-21T19:24:06.556Z,74.53
2018-06-21T19:25:06.522Z,74.63
2018-06-21T19:26:06.497Z,75.39
2018-06-21T19:27:06.478Z,75.20
2018-06-21T19:28:06.447Z,76.06
2018-06-21T19:29:06.425Z,76.45
2018-06-21T19:30:06.410Z,77.30
2018-06-21T19:31:06.394Z,77.94
2018-06-21T19:32:06.352Z,78.22
2018-06-21T19:33:06.320Z,78.13
2018-06-21T19:34:06.300Z,78.70
2018-06-21T19:35:06.267Z,78.99
2018-06-21T19:36:06.254Z,79.17
2018-06-21T19:37:06.218Z,79.46
2018-06-21T19:38:06.197Z,79.17
2018-06-21T19:39:06.171Z,79.94
2018-06-21T19:40:06.146Z,79.85
2018-06-21T19:41:06.120Z,80.57
2018-06-21T19:42:06.097Z,80.66
2018-06-21T19:43:06.114Z,80.57
2018-06-21T19:44:06.050Z,81.04